Time;durP1;ratioP1;P1;durP2;ratioP2;P2;SDS_P1;SDS_P2;PMS_P1;PMS_P2;Temp;Humidity;BMP_temperature;BMP_pressure;BME280_temperature;BME280_humidity;BME280_pressure;Samples;Min_cycle;Max_cycle;Signal;HPM_P1;HPM_P2
2021/11/25 00:01:22;;;;;;;28.95;22.42;;;;;;;3.83;100.00;101331.03;5246663;28;20029;-70
2021/11/25 00:03:54;;;;;;;27.95;20.90;;;;;;;3.79;100.00;101332.06;5248737;28;20025;-69
2021/11/25 00:06:26;;;;;;;31.07;20.83;;;;;;;3.73;100.00;101330.63;5248637;28;20021;-69
2021/11/25 00:08:57;;;;;;;29.70;20.85;;;;;;;3.67;100.00;101328.31;5246222;28;20363;-69
2021/11/25 00:11:28;;;;;;;31.77;22.38;;;;;;;3.65;100.00;101324.97;5248488;28;20029;-69
2021/11/25 00:14:00;;;;;;;32.03;22.58;;;;;;;3.63;100.00;101319.03;5248486;28;20031;-70
2021/11/25 00:16:31;;;;;;;30.60;22.88;;;;;;;3.55;100.00;101310.78;5247363;28;20094;-70
2021/11/25 00:19:03;;;;;;;34.58;21.15;;;;;;;3.60;100.00;101320.03;5247590;28;20450;-69
2021/11/25 00:21:34;;;;;;;31.25;20.63;;;;;;;3.53;100.00;101315.22;5247689;28;20048;-69
2021/11/25 00:24:06;;;;;;;30.10;20.98;;;;;;;3.52;100.00;101316.94;5246958;28;20028;-69
2021/11/25 00:26:37;;;;;;;26.08;19.23;;;;;;;3.52;100.00;101316.09;5246832;28;20429;-70
2021/11/25 00:29:08;;;;;;;28.40;20.58;;;;;;;3.45;100.00;101313.00;5248515;28;20042;-69
2021/11/25 00:31:40;;;;;;;27.45;20.77;;;;;;;3.45;100.00;101309.53;5247036;28;20035;-70
2021/11/25 00:34:11;;;;;;;28.25;19.63;;;;;;;3.32;100.00;101322.25;5245559;28;20025;-69
2021/11/25 00:36:42;;;;;;;28.52;19.23;;;;;;;3.30;100.00;101311.13;5247538;28;20032;-69
2021/11/25 00:39:14;;;;;;;29.50;20.90;;;;;;;3.29;100.00;101312.00;5248637;28;20082;-70
2021/11/25 00:41:47;;;;;;;28.25;20.85;;;;;;;3.27;100.00;101303.50;5245273;28;20521;-69
2021/11/25 00:44:18;;;;;;;29.02;20.27;;;;;;;3.29;100.00;101312.84;5246218;28;20110;-69
2021/11/25 00:46:50;;;;;;;28.50;21.15;;;;;;;3.26;100.00;101310.44;5248110;28;21093;-70
2021/11/25 00:49:21;;;;;;;29.88;20.23;;;;;;;3.25;100.00;101313.06;5246356;28;20667;-70
2021/11/25 00:51:52;;;;;;;28.08;20.33;;;;;;;3.17;100.00;101311.69;5247120;28;20824;-70
2021/11/25 00:54:24;;;;;;;30.05;20.52;;;;;;;3.17;100.00;101303.06;5247174;28;20463;-70
2021/11/25 00:56:55;;;;;;;29.20;20.65;;;;;;;3.14;100.00;101305.81;5246267;28;20051;-69
2021/11/25 00:59:26;;;;;;;28.02;20.58;;;;;;;3.12;100.00;101305.88;5248491;28;20017;-69
2021/11/25 01:01:58;;;;;;;27.48;20.20;;;;;;;3.13;100.00;101312.72;5246075;28;20052;-69
2021/11/25 01:04:29;;;;;;;29.83;21.00;;;;;;;3.09;100.00;101310.34;5247845;28;20100;-69
2021/11/25 01:07:00;;;;;;;28.45;20.60;;;;;;;3.13;100.00;101312.72;5247855;28;20032;-70
2021/11/25 01:09:32;;;;;;;25.40;19.27;;;;;;;3.08;100.00;101313.88;5244848;28;20037;-70
2021/11/25 01:12:03;;;;;;;25.95;20.10;;;;;;;3.02;100.00;101306.38;5248251;28;20437;-69
2021/11/25 01:14:36;;;;;;;28.70;20.48;;;;;;;3.04;100.00;101308.00;5246292;28;20093;-70
2021/11/25 01:17:08;;;;;;;28.42;20.17;;;;;;;2.98;100.00;101297.91;5243765;28;20036;-70
2021/11/25 01:19:40;;;;;;;28.17;20.52;;;;;;;2.98;100.00;101291.91;5245449;28;20025;-69
2021/11/25 01:22:11;;;;;;;25.73;19.85;;;;;;;3.01;100.00;101305.53;5246971;28;20368;-69
2021/11/25 01:24:43;;;;;;;26.65;18.67;;;;;;;2.97;100.00;101311.75;5248133;28;20111;-69
2021/11/25 01:27:16;;;;;;;25.65;18.52;;;;;;;2.98;100.00;101307.44;5244974;28;20540;-69
2021/11/25 01:29:47;;;;;;;23.42;17.88;;;;;;;2.95;100.00;101307.56;5248197;28;20035;-69
2021/11/25 01:32:18;;;;;;;23.92;18.15;;;;;;;2.90;100.00;101308.59;5250312;28;20467;-69
2021/11/25 01:34:50;;;;;;;26.02;18.58;;;;;;;2.85;100.00;101301.97;5250079;28;20033;-70
2021/11/25 01:37:23;;;;;;;24.15;17.58;;;;;;;2.78;100.00;101306.59;5251319;28;20493;-70
2021/11/25 01:39:55;;;;;;;;;;;;;;;3.38;100.00;101302.06;5245127;28;20021;-69
2021/11/25 01:42:26;;;;;;;26.42;18.42;;;;;;;2.80;100.00;101299.56;5244729;28;19970;-69
2021/11/25 01:44:58;;;;;;;27.63;19.25;;;;;;;2.70;100.00;101297.50;5250821;28;20052;-69
2021/11/25 01:47:29;;;;;;;28.05;18.95;;;;;;;2.68;100.00;101295.78;5249871;28;20029;-69
2021/11/25 01:50:01;;;;;;;25.75;18.58;;;;;;;2.65;100.00;101287.31;5251338;28;20441;-69
2021/11/25 01:52:32;;;;;;;26.13;18.50;;;;;;;2.65;100.00;101290.78;5249769;28;20045;-69
2021/11/25 01:55:04;;;;;;;25.08;19.08;;;;;;;2.67;100.00;101295.88;5249468;28;20131;-69
2021/11/25 01:57:36;;;;;;;31.80;19.58;;;;;;;2.59;100.00;101288.44;5250890;28;20035;-69
2021/11/25 02:00:15;;;;;;;26.92;19.20;;;;;;;2.60;100.00;101273.78;5251369;28;20025;-70
2021/11/25 02:02:46;;;;;;;28.33;19.52;;;;;;;2.56;100.00;101275.66;5249208;28;20056;-69
2021/11/25 02:05:18;;;;;;;27.23;18.85;;;;;;;2.59;100.00;101275.53;5249758;28;20546;-69
2021/11/25 02:07:49;;;;;;;26.88;17.85;;;;;;;2.61;100.00;101267.69;5251229;28;20065;-69
2021/11/25 02:10:21;;;;;;;24.17;19.00;;;;;;;2.61;100.00;101272.84;5251462;28;20071;-69
2021/11/25 02:12:53;;;;;;;26.83;19.40;;;;;;;2.57;100.00;101271.31;5248458;28;20138;-70
2021/11/25 02:15:25;;;;;;;27.10;18.65;;;;;;;2.59;100.00;101270.34;5250055;28;20875;-69
2021/11/25 02:17:56;;;;;;;25.85;18.95;;;;;;;2.62;100.00;101266.78;5250851;28;20120;-70
2021/11/25 02:20:49;;;;;;;28.35;20.42;;;;;;;2.84;100.00;101264.91;5249736;28;20044;-69
2021/11/25 02:23:21;;;;;;;25.17;18.90;;;;;;;2.63;100.00;101261.53;5246872;28;20021;-70
2021/11/25 02:25:54;;;;;;;28.83;20.13;;;;;;;2.59;100.00;101262.59;5248804;28;20029;-69
2021/11/25 02:28:30;;;;;;;28.13;20.15;;;;;;;2.67;100.00;101260.50;5250829;28;20039;-69
2021/11/25 02:31:02;;;;;;;25.15;18.85;;;;;;;2.61;100.00;101252.16;5248299;28;20088;-70
2021/11/25 02:33:38;;;;;;;29.02;19.85;;;;;;;2.72;100.00;101244.75;5249691;28;20038;-69
2021/11/25 02:36:10;;;;;;;29.67;21.13;;;;;;;2.63;100.00;101240.00;5250736;28;20013;-69
2021/11/25 02:38:42;;;;;;;26.58;19.25;;;;;;;2.54;100.00;101228.34;5248140;28;20064;-69
2021/11/25 02:41:13;;;;;;;28.08;19.65;;;;;;;2.56;100.00;101223.91;5248738;28;20040;-69
2021/11/25 02:43:44;;;;;;;27.75;19.98;;;;;;;2.59;100.00;101223.78;5248950;28;20405;-69
2021/11/25 02:46:16;;;;;;;28.88;21.10;;;;;;;2.56;100.00;101225.69;5250454;28;20056;-69
2021/11/25 02:48:50;;;;;;;28.85;20.90;;;;;;;2.61;100.00;101226.28;5250256;28;20027;-70
2021/11/25 02:51:24;;;;;;;27.42;19.98;;;;;;;2.62;100.00;101222.81;5248476;28;20043;-70
2021/11/25 02:53:56;;;;;;;30.27;21.90;;;;;;;2.58;100.00;101232.47;5249130;28;20044;-70
2021/11/25 02:56:29;;;;;;;27.83;20.25;;;;;;;2.59;100.00;101228.97;5249113;28;20024;-69
2021/11/25 02:59:01;;;;;;;28.15;20.95;;;;;;;2.55;100.00;101230.00;5249920;28;20595;-70
2021/11/25 03:01:36;;;;;;;32.05;22.77;;;;;;;2.65;100.00;101223.53;5245024;28;20231;-69
2021/11/25 03:04:08;;;;;;;30.35;21.52;;;;;;;2.62;100.00;101222.81;5248710;28;20013;-69
2021/11/25 03:06:39;;;;;;;30.33;22.13;;;;;;;2.65;100.00;101212.31;5248496;28;20414;-69
2021/11/25 03:09:11;;;;;;;32.08;22.05;;;;;;;2.61;100.00;101206.47;5246098;28;20134;-69
2021/11/25 03:11:42;;;;;;;30.65;21.30;;;;;;;2.65;100.00;101202.81;5249706;28;20395;-70
2021/11/25 03:14:13;;;;;;;30.15;21.52;;;;;;;2.64;100.00;101197.72;5249091;28;20120;-69
2021/11/25 03:16:45;;;;;;;30.67;21.30;;;;;;;2.63;100.00;101196.88;5247890;28;20578;-69
2021/11/25 03:19:16;;;;;;;32.08;21.98;;;;;;;2.61;100.00;101200.44;5247836;28;20232;-69
2021/11/25 03:21:48;;;;;;;31.25;21.92;;;;;;;2.59;100.00;101190.16;5248257;28;20490;-70
2021/11/25 03:24:19;;;;;;;30.85;21.77;;;;;;;2.64;100.00;101192.53;5248494;28;20031;-69
2021/11/25 03:26:51;;;;;;;30.63;21.73;;;;;;;2.62;100.00;101194.38;5248886;28;20445;-69
2021/11/25 03:29:22;;;;;;;29.42;21.58;;;;;;;2.65;100.00;101184.72;5249509;28;20048;-69
2021/11/25 03:31:53;;;;;;;30.60;21.17;;;;;;;2.65;100.00;101181.25;5247808;28;20137;-70
2021/11/25 03:34:25;;;;;;;29.48;21.58;;;;;;;2.62;100.00;101182.28;5248651;28;20212;-69
2021/11/25 03:36:56;;;;;;;30.55;21.60;;;;;;;2.61;100.00;101185.78;5249138;28;20066;-70
2021/11/25 03:39:27;;;;;;;30.02;21.23;;;;;;;2.62;100.00;101184.84;5247797;28;20025;-69
2021/11/25 03:41:58;;;;;;;29.90;21.40;;;;;;;2.63;100.00;101183.09;5248950;28;20053;-69
2021/11/25 03:44:30;;;;;;;28.20;22.15;;;;;;;2.67;100.00;101180.28;5247709;28;20028;-70
2021/11/25 03:47:01;;;;;;;31.30;22.40;;;;;;;2.61;100.00;101165.09;5249240;28;20033;-70
2021/11/25 03:49:33;;;;;;;30.52;22.10;;;;;;;2.68;100.00;101179.38;5245999;28;20029;-69
2021/11/25 03:52:05;;;;;;;30.60;22.23;;;;;;;2.72;100.00;101163.72;5247655;28;20049;-70
2021/11/25 03:54:36;;;;;;;33.13;22.85;;;;;;;2.70;100.00;101161.22;5248458;28;20482;-69
2021/11/25 03:57:08;;;;;;;31.88;22.60;;;;;;;2.72;100.00;101159.38;5247805;28;20131;-70
2021/11/25 03:59:40;;;;;;;34.92;23.95;;;;;;;2.73;100.00;101171.44;5247318;28;20509;-70
2021/11/25 04:02:11;;;;;;;34.05;24.33;;;;;;;2.80;100.00;101166.78;5249033;28;20115;-69
2021/11/25 04:04:42;;;;;;;32.63;23.05;;;;;;;2.84;100.00;101160.53;5247936;28;20241;-69
2021/11/25 04:07:14;;;;;;;34.47;23.90;;;;;;;2.86;100.00;101153.56;5247123;28;20016;-69
2021/11/25 04:09:45;;;;;;;36.33;24.10;;;;;;;2.85;100.00;101155.31;5248335;28;20266;-69
2021/11/25 04:12:16;;;;;;;33.45;24.17;;;;;;;2.92;100.00;101158.47;5248924;28;20394;-69
2021/11/25 04:14:48;;;;;;;35.30;24.85;;;;;;;2.92;100.00;101158.47;5244440;28;20095;-69
2021/11/25 04:17:21;;;;;;;30.10;23.48;;;;;;;2.98;100.00;101146.97;5243672;28;20029;-70
2021/11/25 04:19:53;;;;;;;36.70;25.17;;;;;;;2.98;100.00;101147.78;5248283;28;20483;-69
2021/11/25 04:22:24;;;;;;;35.13;24.63;;;;;;;3.05;100.00;101149.19;5249025;28;20040;-69
2021/11/25 04:24:57;;;;;;;35.35;25.02;;;;;;;3.09;100.00;101140.34;5246991;28;20116;-69
2021/11/25 04:27:28;;;;;;;33.67;23.67;;;;;;;3.13;100.00;101147.03;5248534;28;20025;-69
2021/11/25 04:30:09;;;;;;;33.08;24.25;;;;;;;3.09;100.00;101145.53;5247857;28;20044;-70
2021/11/25 04:35:33;;;;;;;32.13;23.10;;;;;;;3.20;100.00;101149.34;5247544;28;20044;-73
2021/11/25 04:38:12;;;;;;;31.63;24.10;;;;;;;3.20;100.00;101149.34;5247075;28;20044;-72
2021/11/25 04:40:54;;;;;;;34.10;24.25;;;;;;;3.29;100.00;101154.06;5248593;28;20040;-72
2021/11/25 04:43:26;;;;;;;33.25;25.05;;;;;;;3.16;100.00;101156.44;5246225;28;20107;-72
2021/11/25 04:45:58;;;;;;;34.90;25.45;;;;;;;3.28;100.00;101155.81;5247039;28;20025;-72
2021/11/25 04:48:30;;;;;;;34.22;26.00;;;;;;;3.27;100.00;101150.72;5245808;28;20036;-72
2021/11/25 04:51:01;;;;;;;37.28;24.65;;;;;;;3.29;100.00;101148.88;5246477;28;20021;-72
2021/11/25 04:53:33;;;;;;;37.60;26.67;;;;;;;3.28;100.00;101148.03;5248043;28;20045;-72
2021/11/25 04:56:04;;;;;;;34.28;25.45;;;;;;;3.26;100.00;101156.78;5248666;28;20052;-72
2021/11/25 04:58:36;;;;;;;37.80;26.80;;;;;;;3.30;100.00;101156.59;5246121;28;20025;-72
2021/11/25 05:01:07;;;;;;;37.03;27.60;;;;;;;3.31;100.00;101160.00;5245098;28;20035;-70
2021/11/25 05:03:38;;;;;;;36.35;26.05;;;;;;;3.26;100.00;101151.63;5246183;28;20024;-70
2021/11/25 05:06:09;;;;;;;38.53;26.05;;;;;;;3.27;100.00;101163.66;5245839;28;20498;-70
2021/11/25 05:08:42;;;;;;;33.65;24.10;;;;;;;3.28;100.00;101167.94;5245420;28;20394;-70
2021/11/25 05:11:14;;;;;;;32.28;24.27;;;;;;;3.28;100.00;101171.34;5247773;28;20075;-71
2021/11/25 05:13:45;;;;;;;32.58;24.33;;;;;;;3.30;100.00;101174.72;5246812;28;20116;-70
2021/11/25 05:16:17;;;;;;;35.72;25.35;;;;;;;3.29;100.00;101165.25;5247350;28;20029;-70
2021/11/25 05:18:48;;;;;;;36.72;26.27;;;;;;;3.30;100.00;101168.69;5246467;28;20040;-71
2021/11/25 05:21:19;;;;;;;33.50;25.02;;;;;;;3.31;100.00;101165.19;5247462;28;20021;-70
2021/11/25 05:23:51;;;;;;;32.10;24.52;;;;;;;3.33;100.00;101153.00;5246813;28;20311;-70
2021/11/25 05:26:22;;;;;;;34.47;24.75;;;;;;;3.27;100.00;101142.97;5246484;28;20040;-70
2021/11/25 05:28:53;;;;;;;37.05;26.90;;;;;;;3.30;100.00;101150.56;5246614;28;20467;-70
2021/11/25 05:31:25;;;;;;;35.58;25.92;;;;;;;3.32;100.00;101159.94;5247977;28;20498;-70
2021/11/25 05:33:56;;;;;;;36.88;26.05;;;;;;;3.34;100.00;101158.13;5245612;28;20025;-70
2021/11/25 05:36:27;;;;;;;38.30;25.75;;;;;;;3.39;100.00;101156.13;5247751;28;20017;-71
2021/11/25 05:38:58;;;;;;;38.13;26.90;;;;;;;3.38;100.00;101154.44;5247846;28;20017;-70
2021/11/25 05:41:30;;;;;;;39.08;26.33;;;;;;;3.42;100.00;101148.19;5245332;28;20028;-70
2021/11/25 05:44:01;;;;;;;36.88;26.17;;;;;;;3.44;100.00;101150.69;5246231;28;20036;-70
2021/11/25 05:46:32;;;;;;;37.53;25.25;;;;;;;3.46;100.00;101143.72;5247138;28;20025;-70
2021/11/25 05:49:04;;;;;;;36.22;25.90;;;;;;;3.49;100.00;101147.91;5247969;28;20033;-70
2021/11/25 05:51:35;;;;;;;33.92;25.60;;;;;;;3.55;100.00;101152.75;5244710;28;20108;-71
2021/11/25 05:54:06;;;;;;;33.88;24.27;;;;;;;3.56;100.00;101150.13;5246966;28;20036;-70
2021/11/25 05:56:38;;;;;;;37.38;25.75;;;;;;;3.56;100.00;101142.34;5246575;28;20044;-70
2021/11/25 05:59:09;;;;;;;33.78;25.52;;;;;;;3.61;100.00;101140.34;5245574;28;20025;-71
2021/11/25 06:01:41;;;;;;;35.40;25.65;;;;;;;3.62;100.00;101146.34;5247340;28;20327;-70
2021/11/25 06:04:13;;;;;;;36.53;24.63;;;;;;;3.68;100.00;101150.41;5247588;28;20075;-71
2021/11/25 06:06:44;;;;;;;31.77;24.73;;;;;;;3.68;100.00;101147.81;5247487;28;20107;-70
2021/11/25 06:09:15;;;;;;;35.05;25.42;;;;;;;3.69;100.00;101133.94;5243780;28;20102;-70
2021/11/25 06:11:49;;;;;;;34.72;25.05;;;;;;;3.72;100.00;101133.78;5247133;28;20052;-70
2021/11/25 06:14:20;;;;;;;34.45;25.50;;;;;;;3.72;100.00;101137.22;5246134;28;20541;-70
2021/11/25 06:16:51;;;;;;;34.92;26.95;;;;;;;3.71;100.00;101122.56;5246698;28;20033;-70
2021/11/25 06:19:23;;;;;;;35.30;25.42;;;;;;;3.65;100.00;101118.53;5250768;28;20017;-70
2021/11/25 06:21:54;;;;;;;35.38;26.10;;;;;;;3.76;100.00;101120.59;5249582;28;20577;-70
2021/11/25 06:24:25;;;;;;;33.63;25.75;;;;;;;3.77;100.00;101119.66;5248517;28;20017;-70
2021/11/25 06:26:57;;;;;;;35.03;25.85;;;;;;;3.80;100.00;101118.66;5249134;28;20138;-70
2021/11/25 06:29:28;;;;;;;35.97;25.85;;;;;;;3.83;100.00;101115.94;5250998;28;20025;-71
2021/11/25 06:31:59;;;;;;;35.25;25.25;;;;;;;3.83;100.00;101113.34;5250700;28;20086;-70
2021/11/25 06:34:31;;;;;;;35.90;27.30;;;;;;;3.87;100.00;101107.06;5249010;28;20036;-70
2021/11/25 06:37:02;;;;;;;36.30;25.92;;;;;;;3.87;100.00;101109.66;5250431;28;20699;-70
2021/11/25 06:39:34;;;;;;;37.20;26.63;;;;;;;3.92;100.00;101104.22;5248744;28;20420;-71
2021/11/25 06:42:05;;;;;;;33.90;26.55;;;;;;;3.94;100.00;101100.66;5243447;28;20036;-71
2021/11/25 06:44:36;;;;;;;37.58;27.15;;;;;;;3.95;100.00;101098.88;5242962;28;20030;-70
2021/11/25 06:47:08;;;;;;;39.85;27.60;;;;;;;3.97;100.00;101091.84;5247425;28;20024;-71
2021/11/25 06:49:39;;;;;;;34.05;26.90;;;;;;;3.99;100.00;101087.44;5248062;28;20017;-71
2021/11/25 06:52:10;;;;;;;36.65;27.42;;;;;;;4.02;100.00;101089.88;5247060;28;20099;-71
2021/11/25 06:54:42;;;;;;;34.50;26.10;;;;;;;4.02;100.00;101089.88;5249075;28;20031;-71
2021/11/25 06:57:13;;;;;;;36.10;27.10;;;;;;;4.03;100.00;101105.31;5250345;28;20111;-71
2021/11/25 06:59:45;;;;;;;36.97;26.10;;;;;;;4.04;100.00;101104.41;5248621;28;20394;-71
2021/11/25 07:02:16;;;;;;;33.15;25.67;;;;;;;4.06;100.00;101099.16;5249795;28;20032;-70
2021/11/25 07:04:47;;;;;;;35.22;26.85;;;;;;;4.04;100.00;101098.38;5248580;28;20029;-71
2021/11/25 07:07:18;;;;;;;35.13;27.20;;;;;;;4.06;100.00;101100.00;5247602;28;20028;-71
2021/11/25 07:09:50;;;;;;;35.60;26.98;;;;;;;4.06;100.00;101109.53;5248520;28;20473;-71
2021/11/25 07:12:21;;;;;;;34.22;26.85;;;;;;;4.08;100.00;101113.69;5248296;28;20544;-71
2021/11/25 07:14:52;;;;;;;32.85;26.58;;;;;;;4.07;100.00;101103.41;5248967;28;20074;-71
2021/11/25 07:17:24;;;;;;;34.38;26.00;;;;;;;4.12;100.00;101109.19;5249820;28;20588;-71
2021/11/25 07:19:55;;;;;;;35.30;26.83;;;;;;;4.11;100.00;101104.91;5246322;28;20029;-71
2021/11/25 07:22:26;;;;;;;30.55;25.17;;;;;;;4.10;100.00;101093.72;5244656;28;20025;-71
2021/11/25 07:24:57;;;;;;;33.90;25.05;;;;;;;4.09;100.00;101092.06;5249275;28;20117;-71
2021/11/25 07:27:29;;;;;;;32.25;25.15;;;;;;;4.00;100.00;101074.38;5228396;28;20048;-71
2021/11/25 07:30:00;;;;;;;29.55;23.50;;;;;;;4.05;100.00;101090.53;5243525;28;20467;-71
2021/11/25 07:32:31;;;;;;;30.98;24.30;;;;;;;4.06;100.00;101099.16;5243545;28;20112;-71
2021/11/25 07:35:04;;;;;;;35.35;23.10;;;;;;;4.10;100.00;101108.44;5242830;28;20017;-71
2021/11/25 07:37:36;;;;;;;29.65;22.67;;;;;;;4.12;100.00;101104.00;5244059;28;20098;-71
2021/11/25 07:40:09;;;;;;;29.02;23.17;;;;;;;4.14;100.00;101104.75;5248734;28;20029;-71
2021/11/25 07:42:41;;;;;;;29.55;23.45;;;;;;;4.17;100.00;101106.34;5244431;28;20083;-71
2021/11/25 07:45:12;;;;;;;29.33;23.02;;;;;;;4.17;100.00;101106.34;5247467;28;20039;-71
2021/11/25 07:47:44;;;;;;;31.80;24.15;;;;;;;4.18;100.00;101105.44;5246752;28;20052;-71
2021/11/25 07:50:25;;;;;;;30.50;22.90;;;;;;;4.23;100.00;101113.78;5246139;28;20029;-71
2021/11/25 07:52:57;;;;;;;30.00;23.92;;;;;;;4.20;100.00;101108.75;5244548;28;21077;-71
2021/11/25 07:55:29;;;;;;;28.30;23.60;;;;;;;4.26;100.00;101114.47;5246674;28;20083;-71
2021/11/25 07:58:00;;;;;;;28.58;23.52;;;;;;;4.28;100.00;101109.19;5246656;28;20445;-71
2021/11/25 08:00:31;;;;;;;29.88;24.58;;;;;;;4.31;100.00;101112.44;5245274;28;20035;-71
2021/11/25 08:03:03;;;;;;;26.90;21.88;;;;;;;4.34;100.00;101111.47;5244580;28;20033;-71
2021/11/25 08:05:34;;;;;;;29.38;23.65;;;;;;;4.33;100.00;101110.63;5245849;28;20028;-71
2021/11/25 08:08:09;;;;;;;31.92;23.73;;;;;;;4.30;100.00;101108.19;5245134;28;20043;-71
2021/11/25 08:10:41;;;;;;;30.92;23.92;;;;;;;4.34;100.00;101116.66;5246179;28;20025;-71
2021/11/25 08:13:12;;;;;;;29.20;24.23;;;;;;;4.38;100.00;101123.34;5248215;28;20398;-71
2021/11/25 08:15:44;;;;;;;28.17;22.75;;;;;;;4.42;100.00;101122.25;5246479;28;20035;-71
2021/11/25 08:18:15;;;;;;;30.20;23.70;;;;;;;4.43;100.00;101130.84;5245803;28;20035;-71
2021/11/25 08:20:46;;;;;;;30.75;23.88;;;;;;;4.40;100.00;101121.50;5245697;28;20037;-71
2021/11/25 08:23:18;;;;;;;29.60;23.33;;;;;;;4.38;100.00;101112.97;5243489;28;20029;-71
2021/11/25 08:25:50;;;;;;;31.80;23.17;;;;;;;4.44;100.00;101125.59;5238680;28;20025;-71
2021/11/25 08:28:24;;;;;;;27.38;23.10;;;;;;;4.44;100.00;101120.41;5244038;28;20056;-71
2021/11/25 08:30:55;;;;;;;30.08;23.98;;;;;;;4.43;100.00;101118.72;5245777;28;20077;-71
2021/11/25 08:33:27;;;;;;;28.15;23.15;;;;;;;4.43;100.00;101121.31;5241765;28;20458;-71
2021/11/25 08:35:58;;;;;;;31.77;23.85;;;;;;;4.46;100.00;101128.09;5246104;28;20091;-71
2021/11/25 08:38:31;;;;;;;34.10;23.85;;;;;;;4.45;100.00;101129.03;5243928;28;20029;-71
2021/11/25 08:41:03;;;;;;;28.30;24.08;;;;;;;4.49;100.00;101133.97;5244892;28;20073;-71
2021/11/25 08:43:34;;;;;;;28.73;23.50;;;;;;;4.51;100.00;101139.91;5242511;28;20112;-71
2021/11/25 08:46:06;;;;;;;27.77;22.65;;;;;;;4.54;100.00;101139.72;5244341;28;20353;-71
2021/11/25 08:48:37;;;;;;;29.25;23.92;;;;;;;4.54;100.00;101124.16;5242131;28;20028;-71
2021/11/25 08:51:10;;;;;;;28.38;23.08;;;;;;;4.61;100.00;101135.03;5242550;28;20379;-68
2021/11/25 08:53:42;;;;;;;29.20;24.27;;;;;;;4.64;100.00;101125.34;5243849;28;20410;-68
2021/11/25 08:56:13;;;;;;;28.42;22.83;;;;;;;4.68;100.00;101120.81;5243546;28;20494;-68
2021/11/25 08:58:45;;;;;;;30.40;23.60;;;;;;;4.69;100.00;101121.66;5245407;28;20036;-68
2021/11/25 09:01:17;;;;;;;29.63;23.58;;;;;;;4.69;100.00;101119.06;5245126;28;20017;-68
2021/11/25 09:03:48;;;;;;;30.08;23.17;;;;;;;4.75;100.00;101116.13;5243956;28;20021;-68
2021/11/25 09:06:20;;;;;;;25.90;22.75;;;;;;;4.73;100.00;101103.22;5246485;28;20029;-68
2021/11/25 09:08:52;;;;;;;26.02;23.02;;;;;;;4.75;100.00;101100.56;5243838;28;20388;-68
2021/11/25 09:11:23;;;;;;;29.35;22.92;;;;;;;4.77;100.00;101096.97;5246403;28;20032;-68
2021/11/25 09:13:54;;;;;;;33.28;24.08;;;;;;;4.80;100.00;101098.53;5245783;28;20090;-68
2021/11/25 09:16:26;;;;;;;27.33;23.65;;;;;;;4.82;100.00;101100.13;5245757;28;20029;-68
2021/11/25 09:18:57;;;;;;;27.58;22.30;;;;;;;4.87;100.00;101097.25;5237490;28;20445;-68
2021/11/25 09:21:30;;;;;;;30.25;24.00;;;;;;;4.90;100.00;101096.25;5239021;28;20032;-68
2021/11/25 09:24:06;;;;;;;28.13;22.33;;;;;;;4.97;100.00;101094.97;5241176;28;20458;-68
2021/11/25 09:26:38;;;;;;;32.05;23.63;;;;;;;4.98;100.00;101105.28;5242234;28;20043;-67
2021/11/25 09:29:10;;;;;;;32.22;23.85;;;;;;;5.08;100.00;101106.41;5246330;28;20478;-67
2021/11/25 09:31:41;;;;;;;32.80;23.88;;;;;;;5.19;100.00;101104.94;5246337;28;20020;-70
2021/11/25 09:34:13;;;;;;;28.83;23.23;;;;;;;5.28;100.00;101107.03;5244188;28;20576;-70
2021/11/25 09:36:44;;;;;;;28.45;23.27;;;;;;;5.39;100.00;101107.22;5245541;28;20347;-70
2021/11/25 09:39:16;;;;;;;32.30;24.88;;;;;;;5.48;100.00;101101.47;5244570;28;20025;-70
2021/11/25 09:41:47;;;;;;;33.20;24.45;;;;;;;5.52;100.00;101100.38;5246927;28;20029;-70
2021/11/25 09:44:19;;;;;;;35.42;25.27;;;;;;;5.54;100.00;101100.28;5235222;28;20029;-69
2021/11/25 09:46:57;;;;;;;36.03;26.70;;;;;;;5.68;100.00;101109.84;5243593;28;20509;-70
2021/11/25 09:49:29;;;;;;;33.85;24.88;;;;;;;5.64;100.00;101109.19;5241799;28;20616;-70
2021/11/25 09:52:00;;;;;;;36.80;25.48;;;;;;;5.75;100.00;101103.34;5243616;28;20178;-70
2021/11/25 09:54:31;;;;;;;36.25;25.98;;;;;;;5.73;100.00;101094.81;5250088;28;20115;-70
2021/11/25 09:57:03;;;;;;;34.83;25.80;;;;;;;5.71;100.00;101081.06;5246815;28;20111;-70
2021/11/25 09:59:35;;;;;;;41.45;28.42;;;;;;;5.82;100.00;101092.47;5251270;28;20024;-70
2021/11/25 10:02:06;;;;;;;44.70;29.50;;;;;;;5.91;100.00;101098.03;5250072;28;20629;-70
2021/11/25 10:04:37;;;;;;;43.00;29.95;;;;;;;5.93;100.00;101094.47;5250083;28;20042;-70
2021/11/25 10:07:08;;;;;;;44.63;29.30;;;;;;;6.00;100.00;101103.56;5248768;28;20031;-69
2021/11/25 10:09:40;;;;;;;43.42;29.90;;;;;;;6.03;100.00;101103.38;5246933;28;20090;-70
2021/11/25 10:12:32;;;;;;;42.38;29.60;;;;;;;6.24;100.00;101111.59;5250777;28;20021;-70
2021/11/25 10:15:23;;;;;;;42.05;30.23;;;;;;;6.25;100.00;101108.09;5248958;28;20327;-70
2021/11/25 10:17:58;;;;;;;48.58;31.45;;;;;;;6.08;100.00;101106.53;5248989;28;20402;-70
2021/11/25 10:20:38;;;;;;;47.88;31.70;;;;;;;6.19;100.00;101107.63;5251122;28;20021;-70
2021/11/25 10:23:19;;;;;;;45.13;29.83;;;;;;;6.16;100.00;101100.03;5249051;28;20032;-70
2021/11/25 10:26:10;;;;;;;44.70;31.77;;;;;;;6.20;100.00;101102.31;5250385;28;20057;-70
2021/11/25 10:28:43;;;;;;;42.03;29.92;;;;;;;6.18;100.00;101104.19;5250593;28;20036;-70
2021/11/25 10:31:20;;;;;;;44.80;30.25;;;;;;;6.26;100.00;101104.56;5248750;28;20124;-70
2021/11/25 10:33:58;;;;;;;42.22;31.48;;;;;;;6.20;100.00;101110.13;5245965;28;20082;-70
2021/11/25 10:42:00;;;;;;;48.13;32.40;;;;;;;6.26;100.00;101098.53;5248098;28;20170;-69
2021/11/25 10:44:37;;;;;;;48.08;32.80;;;;;;;6.28;100.00;101096.66;5246382;28;20032;-70
2021/11/25 10:47:18;;;;;;;48.70;33.50;;;;;;;6.29;100.00;101099.16;5250066;28;20078;-70
2021/11/25 10:49:55;;;;;;;49.85;34.00;;;;;;;6.26;100.00;101096.75;5248677;28;20449;-70
2021/11/25 10:52:44;;;;;;;50.28;35.28;;;;;;;6.32;100.00;101100.72;5248222;28;20052;-69
2021/11/25 10:55:15;;;;;;;50.85;34.47;;;;;;;6.18;100.00;101101.59;5248920;28;20104;-70
2021/11/25 10:57:56;;;;;;;51.15;35.38;;;;;;;6.22;100.00;101091.84;5248007;28;20302;-70
2021/11/25 11:00:28;;;;;;;51.35;35.00;;;;;;;6.14;100.00;101094.06;5249974;28;20021;-70
2021/11/25 11:03:08;;;;;;;58.37;36.70;;;;;;;6.25;100.00;101097.69;5245527;28;20076;-70
2021/11/25 11:05:49;;;;;;;51.97;36.25;;;;;;;6.24;100.00;101101.19;5249516;28;20679;-70
2021/11/25 11:08:20;;;;;;;54.67;37.08;;;;;;;6.05;100.00;101101.50;5248139;28;20033;-70
2021/11/25 11:10:52;;;;;;;54.10;36.95;;;;;;;6.11;100.00;101102.91;5245154;28;20086;-70
2021/11/25 11:18:58;;;;;;;53.90;37.03;;;;;;;6.27;100.00;101105.38;5248423;28;20143;-70
2021/11/25 11:21:38;;;;;;;57.22;37.53;;;;;;;6.30;100.00;101100.84;5246604;28;20398;-70
2021/11/25 11:24:22;;;;;;;57.67;37.88;;;;;;;6.36;100.00;101094.38;5249390;28;20075;-70
2021/11/25 11:27:09;;;;;;;56.95;38.05;;;;;;;6.28;100.00;101096.66;5248894;28;20028;-67
2021/11/25 11:29:40;;;;;;;56.10;38.65;;;;;;;6.29;100.00;101103.53;5247574;28;20044;-68
2021/11/25 11:32:12;;;;;;;58.42;39.97;;;;;;;6.31;100.00;101105.09;5248290;28;20136;-67
2021/11/25 11:34:44;;;;;;;55.38;37.97;;;;;;;6.34;100.00;101096.28;5248723;28;20029;-68
2021/11/25 11:37:18;;;;;;;56.03;37.63;;;;;;;6.46;100.00;101092.06;5248224;28;20494;-68
2021/11/25 11:39:51;;;;;;;58.30;39.42;;;;;;;6.50;100.00;101090.94;5247707;28;20040;-68
2021/11/25 11:42:24;;;;;;;52.38;38.22;;;;;;;6.52;100.00;101086.47;5247909;28;20124;-68
2021/11/25 11:44:55;;;;;;;61.13;39.75;;;;;;;6.60;100.00;101096.38;5247509;28;20409;-68
2021/11/25 11:47:28;;;;;;;56.25;38.50;;;;;;;6.64;100.00;101093.47;5241500;28;20025;-67